sensor_id;sensor_type;location;lat;lon;timestamp;temperature;humidity
9776;DHT22;4927;52.472;13.108;2023-06-10T00:00:17;15.20;99.90
9776;DHT22;4927;52.472;13.108;2023-06-10T00:01:19;15.20;99.90
9776;DHT22;4927;52.472;13.108;2023-06-10T00:02:21;15.20;99.90
9776;DHT22;4927;52.472;13.108;2023-06-10T00:03:22;15.10;99.90
9776;DHT22;4927;52.472;13.108;2023-06-10T00:04:24;15.10;99.90
9776;DHT22;4927;52.472;13.108;2023-06-10T00:05:26;15.10;99.90
9776;DHT22;4927;52.472;13.108;2023-06-10T00:06:28;15.10;99.90
9776;DHT22;4927;52.472;13.108;2023-06-10T00:07:30;15.10;99.90
9776;DHT22;4927;52.472;13.108;2023-06-10T00:08:32;15.10;99.90
9776;DHT22;4927;52.472;13.108;2023-06-10T00:09:35;15.10;99.90
9776;DHT22;4927;52.472;13.108;2023-06-10T00:10:37;15.10;99.90
9776;DHT22;4927;52.472;13.108;2023-06-10T00:11:38;15.00;99.90
9776;DHT22;4927;52.472;13.108;2023-06-10T00:12:40;15.00;99.90
9776;DHT22;4927;52.472;13.108;2023-06-10T00:13:43;15.00;99.90
9776;DHT22;4927;52.472;13.108;2023-06-10T00:14:44;15.00;99.90
9776;DHT22;4927;52.472;13.108;2023-06-10T00:15:46;15.00;99.90
9776;DHT22;4927;52.472;13.108;2023-06-10T00:16:48;15.00;99.90
9776;DHT22;4927;52.472;13.108;2023-06-10T00:17:50;14.90;99.90
9776;DHT22;4927;52.472;13.108;2023-06-10T00:18:52;14.90;99.90
9776;DHT22;4927;52.472;13.108;2023-06-10T00:19:54;14.90;99.90
9776;DHT22;4927;52.472;13.108;2023-06-10T00:20:56;14.90;99.90
9776;DHT22;4927;52.472;13.108;2023-06-10T00:21:57;14.90;99.90
9776;DHT22;4927;52.472;13.108;2023-06-10T00:23:00;14.90;99.90
9776;DHT22;4927;52.472;13.108;2023-06-10T00:24:02;14.90;99.90
9776;DHT22;4927;52.472;13.108;2023-06-10T00:25:05;14.90;99.90
9776;DHT22;4927;52.472;13.108;2023-06-10T00:26:07;14.80;99.90
9776;DHT22;4927;52.472;13.108;2023-06-10T00:27:09;14.90;99.90
9776;DHT22;4927;52.472;13.108;2023-06-10T00:28:11;14.80;99.90
9776;DHT22;4927;52.472;13.108;2023-06-10T00:29:13;14.80;99.90
9776;DHT22;4927;52.472;13.108;2023-06-10T00:30:15;14.80;99.90
9776;DHT22;4927;52.472;13.108;2023-06-10T00:31:16;14.80;99.90
9776;DHT22;4927;52.472;13.108;2023-06-10T00:32:18;14.80;99.90
9776;DHT22;4927;52.472;13.108;2023-06-10T00:33:20;14.80;99.90
9776;DHT22;4927;52.472;13.108;2023-06-10T00:34:22;14.80;99.90
9776;DHT22;4927;52.472;13.108;2023-06-10T00:35:24;14.80;99.90
9776;DHT22;4927;52.472;13.108;2023-06-10T00:36:27;14.70;99.90
9776;DHT22;4927;52.472;13.108;2023-06-10T00:37:28;14.70;99.90
9776;DHT22;4927;52.472;13.108;2023-06-10T00:38:30;14.70;99.90
9776;DHT22;4927;52.472;13.108;2023-06-10T00:39:32;14.70;99.90
9776;DHT22;4927;52.472;13.108;2023-06-10T00:40:41;14.70;99.90
9776;DHT22;4927;52.472;13.108;2023-06-10T00:41:43;14.70;99.90
9776;DHT22;4927;52.472;13.108;2023-06-10T00:42:44;14.70;99.90
9776;DHT22;4927;52.472;13.108;2023-06-10T00:43:46;14.70;99.90
9776;DHT22;4927;52.472;13.108;2023-06-10T00:44:48;14.70;99.90
9776;DHT22;4927;52.472;13.108;2023-06-10T00:45:51;14.70;99.90
9776;DHT22;4927;52.472;13.108;2023-06-10T00:46:52;14.60;99.90
9776;DHT22;4927;52.472;13.108;2023-06-10T00:47:55;14.60;99.90
9776;DHT22;4927;52.472;13.108;2023-06-10T00:48:56;14.60;99.90
9776;DHT22;4927;52.472;13.108;2023-06-10T00:49:59;14.70;99.90
9776;DHT22;4927;52.472;13.108;2023-06-10T00:51:01;14.70;99.90
9776;DHT22;4927;52.472;13.108;2023-06-10T00:52:04;14.60;99.90
9776;DHT22;4927;52.472;13.108;2023-06-10T00:53:06;14.70;99.90
9776;DHT22;4927;52.472;13.108;2023-06-10T00:54:09;14.60;99.90
9776;DHT22;4927;52.472;13.108;2023-06-10T00:55:10;14.60;99.90
9776;DHT22;4927;52.472;13.108;2023-06-10T00:56:13;14.60;99.90
9776;DHT22;4927;52.472;13.108;2023-06-10T00:57:14;14.60;99.90
9776;DHT22;4927;52.472;13.108;2023-06-10T00:58:16;14.50;99.90
9776;DHT22;4927;52.472;13.108;2023-06-10T00:59:18;14.50;99.90
9776;DHT22;4927;52.472;13.108;2023-06-10T01:00:20;14.50;99.90
9776;DHT22;4927;52.472;13.108;2023-06-10T01:01:22;14.50;99.90
9776;DHT22;4927;52.472;13.108;2023-06-10T01:02:24;14.50;99.90
9776;DHT22;4927;52.472;13.108;2023-06-10T01:03:26;14.50;99.90
9776;DHT22;4927;52.472;13.108;2023-06-10T01:04:28;14.50;99.90
9776;DHT22;4927;52.472;13.108;2023-06-10T01:05:30;14.50;99.90
9776;DHT22;4927;52.472;13.108;2023-06-10T01:06:47;14.50;99.90
9776;DHT22;4927;52.472;13.108;2023-06-10T01:08:01;14.50;99.90
9776;DHT22;4927;52.472;13.108;2023-06-10T01:09:23;14.50;99.90
9776;DHT22;4927;52.472;13.108;2023-06-10T01:10:29;14.50;99.90
9776;DHT22;4927;52.472;13.108;2023-06-10T01:11:34;14.50;99.90
9776;DHT22;4927;52.472;13.108;2023-06-10T01:12:49;14.50;99.90
9776;DHT22;4927;52.472;13.108;2023-06-10T01:13:49;14.50;99.90
9776;DHT22;4927;52.472;13.108;2023-06-10T01:14:50;14.50;99.90
9776;DHT22;4927;52.472;13.108;2023-06-10T01:15:52;14.40;99.90
9776;DHT22;4927;52.472;13.108;2023-06-10T01:16:55;14.40;99.90
9776;DHT22;4927;52.472;13.108;2023-06-10T01:17:59;14.40;99.90
9776;DHT22;4927;52.472;13.108;2023-06-10T01:19:01;14.40;99.90
9776;DHT22;4927;52.472;13.108;2023-06-10T01:20:03;14.40;99.90
9776;DHT22;4927;52.472;13.108;2023-06-10T01:21:06;14.40;99.90
9776;DHT22;4927;52.472;13.108;2023-06-10T01:22:08;14.30;99.90
9776;DHT22;4927;52.472;13.108;2023-06-10T01:23:10;14.30;99.90
9776;DHT22;4927;52.472;13.108;2023-06-10T01:24:11;14.30;99.90
9776;DHT22;4927;52.472;13.108;2023-06-10T01:25:13;14.30;99.90
9776;DHT22;4927;52.472;13.108;2023-06-10T01:26:15;14.20;99.90
9776;DHT22;4927;52.472;13.108;2023-06-10T01:27:17;14.20;99.90
9776;DHT22;4927;52.472;13.108;2023-06-10T01:28:26;14.20;99.90
9776;DHT22;4927;52.472;13.108;2023-06-10T01:29:31;14.20;99.90
9776;DHT22;4927;52.472;13.108;2023-06-10T01:30:31;14.20;99.90
9776;DHT22;4927;52.472;13.108;2023-06-10T01:31:43;14.20;99.90
9776;DHT22;4927;52.472;13.108;2023-06-10T01:32:45;14.20;99.90
9776;DHT22;4927;52.472;13.108;2023-06-10T01:33:47;14.20;99.90
9776;DHT22;4927;52.472;13.108;2023-06-10T01:34:49;14.10;99.90
9776;DHT22;4927;52.472;13.108;2023-06-10T01:35:51;14.10;99.90
9776;DHT22;4927;52.472;13.108;2023-06-10T01:36:53;14.10;99.90
9776;DHT22;4927;52.472;13.108;2023-06-10T01:37:55;14.10;99.90
9776;DHT22;4927;52.472;13.108;2023-06-10T01:38:56;14.10;99.90
9776;DHT22;4927;52.472;13.108;2023-06-10T01:39:59;14.10;99.90
9776;DHT22;4927;52.472;13.108;2023-06-10T01:41:00;14.10;99.90
9776;DHT22;4927;52.472;13.108;2023-06-10T01:42:02;14.00;99.90
9776;DHT22;4927;52.472;13.108;2023-06-10T01:43:05;14.10;99.90
9776;DHT22;4927;52.472;13.108;2023-06-10T01:44:07;14.00;99.90
9776;DHT22;4927;52.472;13.108;2023-06-10T01:45:09;14.00;99.90
9776;DHT22;4927;52.472;13.108;2023-06-10T01:46:11;14.00;99.90
9776;DHT22;4927;52.472;13.108;2023-06-10T01:47:13;14.00;99.90
9776;DHT22;4927;52.472;13.108;2023-06-10T01:48:15;14.00;99.90
9776;DHT22;4927;52.472;13.108;2023-06-10T01:49:16;14.00;99.90
9776;DHT22;4927;52.472;13.108;2023-06-10T01:50:18;14.00;99.90
9776;DHT22;4927;52.472;13.108;2023-06-10T01:51:20;14.00;99.90
9776;DHT22;4927;52.472;13.108;2023-06-10T01:52:22;14.00;99.90
9776;DHT22;4927;52.472;13.108;2023-06-10T01:53:23;14.00;99.90
9776;DHT22;4927;52.472;13.108;2023-06-10T01:54:25;14.00;99.90
9776;DHT22;4927;52.472;13.108;2023-06-10T01:55:27;14.00;99.90
9776;DHT22;4927;52.472;13.108;2023-06-10T01:56:29;14.00;99.90
9776;DHT22;4927;52.472;13.108;2023-06-10T01:57:31;14.00;99.90
9776;DHT22;4927;52.472;13.108;2023-06-10T01:58:32;14.00;99.90
9776;DHT22;4927;52.472;13.108;2023-06-10T01:59:34;14.00;99.90
9776;DHT22;4927;52.472;13.108;2023-06-10T02:00:36;14.00;99.90
9776;DHT22;4927;52.472;13.108;2023-06-10T02:01:38;14.00;99.90
9776;DHT22;4927;52.472;13.108;2023-06-10T02:02:39;14.00;99.90
9776;DHT22;4927;52.472;13.108;2023-06-10T02:03:41;14.00;99.90
9776;DHT22;4927;52.472;13.108;2023-06-10T02:04:43;14.00;99.90
9776;DHT22;4927;52.472;13.108;2023-06-10T02:05:45;13.90;99.90
9776;DHT22;4927;52.472;13.108;2023-06-10T02:06:47;13.90;99.90
9776;DHT22;4927;52.472;13.108;2023-06-10T02:07:49;13.90;99.90
9776;DHT22;4927;52.472;13.108;2023-06-10T02:08:51;13.90;99.90
9776;DHT22;4927;52.472;13.108;2023-06-10T02:09:53;13.90;99.90
9776;DHT22;4927;52.472;13.108;2023-06-10T02:10:55;13.90;99.90
9776;DHT22;4927;52.472;13.108;2023-06-10T02:11:57;13.90;99.90
9776;DHT22;4927;52.472;13.108;2023-06-10T02:12:58;13.90;99.90
9776;DHT22;4927;52.472;13.108;2023-06-10T02:14:01;13.90;99.90
9776;DHT22;4927;52.472;13.108;2023-06-10T02:15:03;13.90;99.90
9776;DHT22;4927;52.472;13.108;2023-06-10T02:16:04;13.90;99.90
9776;DHT22;4927;52.472;13.108;2023-06-10T02:17:06;13.80;99.90
9776;DHT22;4927;52.472;13.108;2023-06-10T02:18:08;13.80;99.90
9776;DHT22;4927;52.472;13.108;2023-06-10T02:19:10;13.80;99.90
9776;DHT22;4927;52.472;13.108;2023-06-10T02:20:12;13.80;99.90
9776;DHT22;4927;52.472;13.108;2023-06-10T02:21:13;13.80;99.90
9776;DHT22;4927;52.472;13.108;2023-06-10T02:22:15;13.80;99.90
9776;DHT22;4927;52.472;13.108;2023-06-10T02:23:17;13.80;99.90
9776;DHT22;4927;52.472;13.108;2023-06-10T02:24:19;13.80;99.90
9776;DHT22;4927;52.472;13.108;2023-06-10T02:25:21;13.80;99.90
9776;DHT22;4927;52.472;13.108;2023-06-10T02:26:23;13.80;99.90
9776;DHT22;4927;52.472;13.108;2023-06-10T02:27:25;13.80;99.90
9776;DHT22;4927;52.472;13.108;2023-06-10T02:28:27;13.70;99.90
9776;DHT22;4927;52.472;13.108;2023-06-10T02:29:29;13.70;99.90
9776;DHT22;4927;52.472;13.108;2023-06-10T02:30:31;13.70;99.90
9776;DHT22;4927;52.472;13.108;2023-06-10T02:31:33;13.70;99.90
9776;DHT22;4927;52.472;13.108;2023-06-10T02:32:34;13.70;99.90
9776;DHT22;4927;52.472;13.108;2023-06-10T02:33:37;13.70;99.90
9776;DHT22;4927;52.472;13.108;2023-06-10T02:34:38;13.70;99.90
9776;DHT22;4927;52.472;13.108;2023-06-10T02:35:40;13.70;99.90
9776;DHT22;4927;52.472;13.108;2023-06-10T02:36:42;13.70;99.90
9776;DHT22;4927;52.472;13.108;2023-06-10T02:37:44;13.70;99.90
9776;DHT22;4927;52.472;13.108;2023-06-10T02:38:46;13.70;99.90
9776;DHT22;4927;52.472;13.108;2023-06-10T02:39:48;13.70;99.90
9776;DHT22;4927;52.472;13.108;2023-06-10T02:40:50;13.70;99.90
9776;DHT22;4927;52.472;13.108;2023-06-10T02:41:52;13.70;99.90
9776;DHT22;4927;52.472;13.108;2023-06-10T02:42:54;13.70;99.90
9776;DHT22;4927;52.472;13.108;2023-06-10T02:43:56;13.60;99.90
9776;DHT22;4927;52.472;13.108;2023-06-10T02:44:58;13.60;99.90
9776;DHT22;4927;52.472;13.108;2023-06-10T02:45:59;13.60;99.90
9776;DHT22;4927;52.472;13.108;2023-06-10T02:47:01;13.60;99.90
9776;DHT22;4927;52.472;13.108;2023-06-10T02:48:03;13.60;99.90
9776;DHT22;4927;52.472;13.108;2023-06-10T02:49:05;13.60;99.90
9776;DHT22;4927;52.472;13.108;2023-06-10T02:50:07;13.60;99.90
9776;DHT22;4927;52.472;13.108;2023-06-10T02:51:10;13.60;99.90
9776;DHT22;4927;52.472;13.108;2023-06-10T02:52:11;13.60;99.90
9776;DHT22;4927;52.472;13.108;2023-06-10T02:53:13;13.60;99.90
9776;DHT22;4927;52.472;13.108;2023-06-10T02:54:15;13.50;99.90
9776;DHT22;4927;52.472;13.108;2023-06-10T02:55:17;13.50;99.90
9776;DHT22;4927;52.472;13.108;2023-06-10T02:56:19;13.60;99.90
9776;DHT22;4927;52.472;13.108;2023-06-10T02:57:21;13.50;99.90
9776;DHT22;4927;52.472;13.108;2023-06-10T02:58:23;13.50;99.90
9776;DHT22;4927;52.472;13.108;2023-06-10T02:59:24;13.50;99.90
9776;DHT22;4927;52.472;13.108;2023-06-10T03:00:26;13.50;99.90
9776;DHT22;4927;52.472;13.108;2023-06-10T03:01:28;13.50;99.90
9776;DHT22;4927;52.472;13.108;2023-06-10T03:02:30;13.50;99.90
9776;DHT22;4927;52.472;13.108;2023-06-10T03:03:31;13.50;99.90
9776;DHT22;4927;52.472;13.108;2023-06-10T03:04:33;13.50;99.90
9776;DHT22;4927;52.472;13.108;2023-06-10T03:05:35;13.50;99.90
9776;DHT22;4927;52.472;13.108;2023-06-10T03:06:37;13.50;99.90
9776;DHT22;4927;52.472;13.108;2023-06-10T03:07:39;13.50;99.90
9776;DHT22;4927;52.472;13.108;2023-06-10T03:08:40;13.50;99.90
9776;DHT22;4927;52.472;13.108;2023-06-10T03:09:43;13.50;99.90
9776;DHT22;4927;52.472;13.108;2023-06-10T03:10:45;13.50;99.90
9776;DHT22;4927;52.472;13.108;2023-06-10T03:11:46;13.50;99.90
9776;DHT22;4927;52.472;13.108;2023-06-10T03:12:48;13.40;99.90
9776;DHT22;4927;52.472;13.108;2023-06-10T03:13:50;13.40;99.90
9776;DHT22;4927;52.472;13.108;2023-06-10T03:14:52;13.40;99.90
9776;DHT22;4927;52.472;13.108;2023-06-10T03:15:53;13.40;99.90
9776;DHT22;4927;52.472;13.108;2023-06-10T03:16:55;13.30;99.90
9776;DHT22;4927;52.472;13.108;2023-06-10T03:17:57;13.30;99.90
9776;DHT22;4927;52.472;13.108;2023-06-10T03:18:59;13.30;99.90
9776;DHT22;4927;52.472;13.108;2023-06-10T03:20:00;13.30;99.90
9776;DHT22;4927;52.472;13.108;2023-06-10T03:21:03;13.30;99.90
9776;DHT22;4927;52.472;13.108;2023-06-10T03:22:08;13.30;99.90
9776;DHT22;4927;52.472;13.108;2023-06-10T03:23:11;13.30;99.90
9776;DHT22;4927;52.472;13.108;2023-06-10T03:24:12;13.30;99.90
9776;DHT22;4927;52.472;13.108;2023-06-10T03:25:14;13.30;99.90
9776;DHT22;4927;52.472;13.108;2023-06-10T03:26:16;13.30;99.90
9776;DHT22;4927;52.472;13.108;2023-06-10T03:27:18;13.30;99.90
9776;DHT22;4927;52.472;13.108;2023-06-10T03:28:20;13.30;99.90
9776;DHT22;4927;52.472;13.108;2023-06-10T03:29:22;13.30;99.90
9776;DHT22;4927;52.472;13.108;2023-06-10T03:30:23;13.30;99.90
9776;DHT22;4927;52.472;13.108;2023-06-10T03:31:25;13.30;99.90
9776;DHT22;4927;52.472;13.108;2023-06-10T03:32:27;13.30;99.90
9776;DHT22;4927;52.472;13.108;2023-06-10T03:33:29;13.30;99.90
9776;DHT22;4927;52.472;13.108;2023-06-10T03:34:31;13.40;99.90
9776;DHT22;4927;52.472;13.108;2023-06-10T03:35:40;13.40;99.90
9776;DHT22;4927;52.472;13.108;2023-06-10T03:36:41;13.40;99.90
9776;DHT22;4927;52.472;13.108;2023-06-10T03:37:44;13.40;99.90
9776;DHT22;4927;52.472;13.108;2023-06-10T03:38:46;13.40;99.90
9776;DHT22;4927;52.472;13.108;2023-06-10T03:39:47;13.40;99.90
9776;DHT22;4927;52.472;13.108;2023-06-10T03:40:49;13.40;99.90
9776;DHT22;4927;52.472;13.108;2023-06-10T03:41:51;13.40;99.90
9776;DHT22;4927;52.472;13.108;2023-06-10T03:42:53;13.50;99.90
9776;DHT22;4927;52.472;13.108;2023-06-10T03:43:54;13.50;99.90
9776;DHT22;4927;52.472;13.108;2023-06-10T03:44:56;13.50;99.90
9776;DHT22;4927;52.472;13.108;2023-06-10T03:45:58;13.50;99.90
9776;DHT22;4927;52.472;13.108;2023-06-10T03:47:00;13.50;99.90
9776;DHT22;4927;52.472;13.108;2023-06-10T03:48:02;13.50;99.90
9776;DHT22;4927;52.472;13.108;2023-06-10T03:49:04;13.50;99.90
9776;DHT22;4927;52.472;13.108;2023-06-10T03:50:06;13.50;99.90
9776;DHT22;4927;52.472;13.108;2023-06-10T03:51:09;13.50;99.90
9776;DHT22;4927;52.472;13.108;2023-06-10T03:52:10;13.50;99.90
9776;DHT22;4927;52.472;13.108;2023-06-10T03:53:12;13.50;99.90
9776;DHT22;4927;52.472;13.108;2023-06-10T03:54:14;13.50;99.90
9776;DHT22;4927;52.472;13.108;2023-06-10T03:55:16;13.60;99.90
9776;DHT22;4927;52.472;13.108;2023-06-10T03:56:17;13.60;99.90
9776;DHT22;4927;52.472;13.108;2023-06-10T03:57:20;13.60;99.90
9776;DHT22;4927;52.472;13.108;2023-06-10T03:58:22;13.60;99.90
9776;DHT22;4927;52.472;13.108;2023-06-10T03:59:23;13.60;99.90
9776;DHT22;4927;52.472;13.108;2023-06-10T04:00:25;13.60;99.90
9776;DHT22;4927;52.472;13.108;2023-06-10T04:01:27;13.60;99.90
9776;DHT22;4927;52.472;13.108;2023-06-10T04:02:29;13.60;99.90
9776;DHT22;4927;52.472;13.108;2023-06-10T04:03:31;13.60;99.90
9776;DHT22;4927;52.472;13.108;2023-06-10T04:04:33;13.60;99.90
9776;DHT22;4927;52.472;13.108;2023-06-10T04:05:34;13.60;99.90
9776;DHT22;4927;52.472;13.108;2023-06-10T04:06:36;13.60;99.90
9776;DHT22;4927;52.472;13.108;2023-06-10T04:07:38;13.70;99.90
9776;DHT22;4927;52.472;13.108;2023-06-10T04:08:40;13.60;99.90
9776;DHT22;4927;52.472;13.108;2023-06-10T04:09:43;13.70;99.90
9776;DHT22;4927;52.472;13.108;2023-06-10T04:10:45;13.70;99.90
9776;DHT22;4927;52.472;13.108;2023-06-10T04:11:47;13.70;99.90
9776;DHT22;4927;52.472;13.108;2023-06-10T04:12:49;13.70;99.90
9776;DHT22;4927;52.472;13.108;2023-06-10T04:13:51;13.80;99.90
9776;DHT22;4927;52.472;13.108;2023-06-10T04:14:54;13.80;99.90
9776;DHT22;4927;52.472;13.108;2023-06-10T04:15:56;13.80;99.90
9776;DHT22;4927;52.472;13.108;2023-06-10T04:16:58;13.80;99.90
9776;DHT22;4927;52.472;13.108;2023-06-10T04:18:00;13.80;99.90
9776;DHT22;4927;52.472;13.108;2023-06-10T04:19:02;13.80;99.90
9776;DHT22;4927;52.472;13.108;2023-06-10T04:20:05;13.80;99.90
9776;DHT22;4927;52.472;13.108;2023-06-10T04:21:08;13.80;99.90
9776;DHT22;4927;52.472;13.108;2023-06-10T04:22:10;13.80;99.90
9776;DHT22;4927;52.472;13.108;2023-06-10T04:23:12;13.80;99.90
9776;DHT22;4927;52.472;13.108;2023-06-10T04:24:15;13.90;99.90
9776;DHT22;4927;52.472;13.108;2023-06-10T04:25:18;13.90;99.90
9776;DHT22;4927;52.472;13.108;2023-06-10T04:26:20;13.90;99.90
9776;DHT22;4927;52.472;13.108;2023-06-10T04:27:21;14.00;99.90
9776;DHT22;4927;52.472;13.108;2023-06-10T04:28:23;14.00;99.90
9776;DHT22;4927;52.472;13.108;2023-06-10T04:29:25;14.00;99.90
9776;DHT22;4927;52.472;13.108;2023-06-10T04:30:27;14.00;99.90
9776;DHT22;4927;52.472;13.108;2023-06-10T04:31:29;14.10;99.90
9776;DHT22;4927;52.472;13.108;2023-06-10T04:32:31;14.10;99.90
9776;DHT22;4927;52.472;13.108;2023-06-10T04:33:34;14.20;99.90
9776;DHT22;4927;52.472;13.108;2023-06-10T04:34:36;14.20;99.90
9776;DHT22;4927;52.472;13.108;2023-06-10T04:35:45;14.20;99.90
9776;DHT22;4927;52.472;13.108;2023-06-10T04:36:47;14.20;99.90
9776;DHT22;4927;52.472;13.108;2023-06-10T04:37:50;14.20;99.90
9776;DHT22;4927;52.472;13.108;2023-06-10T04:40:32;14.30;99.90
9776;DHT22;4927;52.472;13.108;2023-06-10T04:41:34;14.40;99.90
9776;DHT22;4927;52.472;13.108;2023-06-10T04:42:36;14.40;99.90
9776;DHT22;4927;52.472;13.108;2023-06-10T04:43:38;14.40;99.90
9776;DHT22;4927;52.472;13.108;2023-06-10T04:44:40;14.50;99.90
9776;DHT22;4927;52.472;13.108;2023-06-10T04:45:41;14.50;99.90
9776;DHT22;4927;52.472;13.108;2023-06-10T04:46:43;14.50;99.90
9776;DHT22;4927;52.472;13.108;2023-06-10T04:47:45;14.60;99.90
9776;DHT22;4927;52.472;13.108;2023-06-10T04:48:47;14.60;99.90
9776;DHT22;4927;52.472;13.108;2023-06-10T04:49:49;14.60;99.90
9776;DHT22;4927;52.472;13.108;2023-06-10T04:50:50;14.70;99.90
9776;DHT22;4927;52.472;13.108;2023-06-10T04:51:53;14.70;99.90
9776;DHT22;4927;52.472;13.108;2023-06-10T04:52:55;14.70;99.90
9776;DHT22;4927;52.472;13.108;2023-06-10T04:53:57;14.80;99.90
9776;DHT22;4927;52.472;13.108;2023-06-10T04:54:58;14.70;99.90
9776;DHT22;4927;52.472;13.108;2023-06-10T04:56:00;14.70;99.90
9776;DHT22;4927;52.472;13.108;2023-06-10T04:58:26;14.80;99.90
9776;DHT22;4927;52.472;13.108;2023-06-10T04:59:28;14.80;99.90
9776;DHT22;4927;52.472;13.108;2023-06-10T05:00:30;14.90;99.90
9776;DHT22;4927;52.472;13.108;2023-06-10T05:01:31;14.90;99.90
9776;DHT22;4927;52.472;13.108;2023-06-10T05:02:33;14.90;99.90
9776;DHT22;4927;52.472;13.108;2023-06-10T05:03:35;15.00;99.90
9776;DHT22;4927;52.472;13.108;2023-06-10T05:04:37;15.00;99.90
9776;DHT22;4927;52.472;13.108;2023-06-10T05:05:38;15.00;99.90
9776;DHT22;4927;52.472;13.108;2023-06-10T05:06:40;15.10;99.90
9776;DHT22;4927;52.472;13.108;2023-06-10T05:07:42;15.00;99.90
9776;DHT22;4927;52.472;13.108;2023-06-10T05:08:44;15.10;99.90
9776;DHT22;4927;52.472;13.108;2023-06-10T05:09:45;15.10;99.90
9776;DHT22;4927;52.472;13.108;2023-06-10T05:10:47;15.20;99.90
9776;DHT22;4927;52.472;13.108;2023-06-10T05:11:49;15.20;99.90
9776;DHT22;4927;52.472;13.108;2023-06-10T05:12:51;15.30;99.90
9776;DHT22;4927;52.472;13.108;2023-06-10T05:16:55;15.40;99.90
9776;DHT22;4927;52.472;13.108;2023-06-10T05:17:57;15.50;99.90
9776;DHT22;4927;52.472;13.108;2023-06-10T05:18:59;15.50;99.90
9776;DHT22;4927;52.472;13.108;2023-06-10T05:20:01;15.50;99.90
9776;DHT22;4927;52.472;13.108;2023-06-10T05:21:03;15.50;99.90
9776;DHT22;4927;52.472;13.108;2023-06-10T05:22:05;15.60;99.90
9776;DHT22;4927;52.472;13.108;2023-06-10T05:23:08;15.60;99.90
9776;DHT22;4927;52.472;13.108;2023-06-10T05:24:09;15.70;99.90
9776;DHT22;4927;52.472;13.108;2023-06-10T05:25:11;15.70;99.90
9776;DHT22;4927;52.472;13.108;2023-06-10T05:26:13;15.70;99.90
9776;DHT22;4927;52.472;13.108;2023-06-10T05:27:15;15.80;99.90
9776;DHT22;4927;52.472;13.108;2023-06-10T05:28:16;15.80;99.90
9776;DHT22;4927;52.472;13.108;2023-06-10T05:29:18;15.80;99.90
9776;DHT22;4927;52.472;13.108;2023-06-10T05:30:21;15.80;99.90
9776;DHT22;4927;52.472;13.108;2023-06-10T05:31:36;15.80;99.90
9776;DHT22;4927;52.472;13.108;2023-06-10T05:32:38;15.90;99.90
9776;DHT22;4927;52.472;13.108;2023-06-10T05:33:40;15.90;99.90
9776;DHT22;4927;52.472;13.108;2023-06-10T05:34:41;15.90;99.90
9776;DHT22;4927;52.472;13.108;2023-06-10T05:35:43;15.90;99.90
9776;DHT22;4927;52.472;13.108;2023-06-10T05:36:46;16.00;99.90
9776;DHT22;4927;52.472;13.108;2023-06-10T05:37:48;16.00;99.90
9776;DHT22;4927;52.472;13.108;2023-06-10T05:38:49;16.00;99.90
9776;DHT22;4927;52.472;13.108;2023-06-10T05:39:51;16.00;99.90
9776;DHT22;4927;52.472;13.108;2023-06-10T05:40:53;16.10;99.90
9776;DHT22;4927;52.472;13.108;2023-06-10T05:41:55;16.10;99.90
9776;DHT22;4927;52.472;13.108;2023-06-10T05:42:56;16.10;99.90
9776;DHT22;4927;52.472;13.108;2023-06-10T05:43:58;16.20;99.90
9776;DHT22;4927;52.472;13.108;2023-06-10T05:45:00;16.20;99.90
9776;DHT22;4927;52.472;13.108;2023-06-10T05:46:02;16.20;99.90
9776;DHT22;4927;52.472;13.108;2023-06-10T05:47:04;16.30;99.90
9776;DHT22;4927;52.472;13.108;2023-06-10T05:48:06;16.30;99.90
9776;DHT22;4927;52.472;13.108;2023-06-10T05:49:08;16.30;99.90
9776;DHT22;4927;52.472;13.108;2023-06-10T05:50:09;16.30;99.90
9776;DHT22;4927;52.472;13.108;2023-06-10T05:51:11;16.30;99.90
9776;DHT22;4927;52.472;13.108;2023-06-10T05:52:13;16.40;99.90
9776;DHT22;4927;52.472;13.108;2023-06-10T05:53:15;16.40;99.90
9776;DHT22;4927;52.472;13.108;2023-06-10T05:54:16;16.40;99.90
9776;DHT22;4927;52.472;13.108;2023-06-10T05:55:18;16.40;99.90
9776;DHT22;4927;52.472;13.108;2023-06-10T05:56:20;16.40;99.90
9776;DHT22;4927;52.472;13.108;2023-06-10T05:57:23;16.40;99.90
9776;DHT22;4927;52.472;13.108;2023-06-10T05:58:25;16.40;99.90
9776;DHT22;4927;52.472;13.108;2023-06-10T05:59:26;16.40;99.90
9776;DHT22;4927;52.472;13.108;2023-06-10T06:00:28;16.50;99.90
9776;DHT22;4927;52.472;13.108;2023-06-10T06:01:31;16.50;99.90
9776;DHT22;4927;52.472;13.108;2023-06-10T06:02:33;16.50;99.90
9776;DHT22;4927;52.472;13.108;2023-06-10T06:03:34;16.50;99.90
9776;DHT22;4927;52.472;13.108;2023-06-10T06:04:36;16.50;99.90
9776;DHT22;4927;52.472;13.108;2023-06-10T06:05:38;16.50;99.90
9776;DHT22;4927;52.472;13.108;2023-06-10T06:06:40;16.50;99.90
9776;DHT22;4927;52.472;13.108;2023-06-10T06:07:42;16.50;99.90
9776;DHT22;4927;52.472;13.108;2023-06-10T06:08:44;16.50;99.90
9776;DHT22;4927;52.472;13.108;2023-06-10T06:09:46;16.50;99.90
9776;DHT22;4927;52.472;13.108;2023-06-10T06:10:47;16.50;99.90
9776;DHT22;4927;52.472;13.108;2023-06-10T06:11:49;16.50;99.90
9776;DHT22;4927;52.472;13.108;2023-06-10T06:12:52;16.60;99.90
9776;DHT22;4927;52.472;13.108;2023-06-10T06:13:53;16.60;99.90
9776;DHT22;4927;52.472;13.108;2023-06-10T06:14:55;16.60;99.90
9776;DHT22;4927;52.472;13.108;2023-06-10T06:15:57;16.70;99.90
9776;DHT22;4927;52.472;13.108;2023-06-10T06:17:06;16.80;99.90
9776;DHT22;4927;52.472;13.108;2023-06-10T06:18:08;16.70;99.90
9776;DHT22;4927;52.472;13.108;2023-06-10T06:19:10;16.80;99.90
9776;DHT22;4927;52.472;13.108;2023-06-10T06:20:12;16.90;99.90
9776;DHT22;4927;52.472;13.108;2023-06-10T06:21:14;16.90;99.90
9776;DHT22;4927;52.472;13.108;2023-06-10T06:22:15;16.90;99.90
9776;DHT22;4927;52.472;13.108;2023-06-10T06:23:17;17.00;99.90
9776;DHT22;4927;52.472;13.108;2023-06-10T06:24:19;17.00;99.90
9776;DHT22;4927;52.472;13.108;2023-06-10T06:25:21;17.00;99.90
9776;DHT22;4927;52.472;13.108;2023-06-10T06:26:23;17.00;99.90
9776;DHT22;4927;52.472;13.108;2023-06-10T06:27:25;17.10;99.90
9776;DHT22;4927;52.472;13.108;2023-06-10T06:28:27;17.10;99.90
9776;DHT22;4927;52.472;13.108;2023-06-10T06:29:29;17.10;99.90
9776;DHT22;4927;52.472;13.108;2023-06-10T06:30:31;17.00;99.90
9776;DHT22;4927;52.472;13.108;2023-06-10T06:31:33;17.00;99.90
9776;DHT22;4927;52.472;13.108;2023-06-10T06:32:35;17.00;99.90
9776;DHT22;4927;52.472;13.108;2023-06-10T06:33:37;17.00;99.90
9776;DHT22;4927;52.472;13.108;2023-06-10T06:34:39;17.10;99.90
9776;DHT22;4927;52.472;13.108;2023-06-10T06:35:40;17.10;99.90
9776;DHT22;4927;52.472;13.108;2023-06-10T06:36:42;17.10;99.90
9776;DHT22;4927;52.472;13.108;2023-06-10T06:37:44;17.10;99.90
9776;DHT22;4927;52.472;13.108;2023-06-10T06:38:46;17.10;99.90
9776;DHT22;4927;52.472;13.108;2023-06-10T06:39:48;17.10;99.90
9776;DHT22;4927;52.472;13.108;2023-06-10T06:40:49;17.10;99.90
9776;DHT22;4927;52.472;13.108;2023-06-10T06:41:51;17.20;99.90
9776;DHT22;4927;52.472;13.108;2023-06-10T06:42:53;17.20;99.90
9776;DHT22;4927;52.472;13.108;2023-06-10T06:43:55;17.20;99.90
9776;DHT22;4927;52.472;13.108;2023-06-10T06:44:57;17.20;99.90